createdAt,value
2023-10-09T00:00:40.197Z,12.69
2023-10-09T00:05:47.646Z,12.67
2023-10-09T00:10:55.677Z,12.63
2023-10-09T00:16:09.752Z,12.58
2023-10-09T00:21:21.646Z,12.56
2023-10-09T00:26:30.747Z,12.57
2023-10-09T00:31:35.099Z,12.54
2023-10-09T00:36:52.204Z,12.51
2023-10-09T00:41:59.975Z,12.49
2023-10-09T00:47:11.525Z,12.46
2023-10-09T00:52:21.333Z,12.41
2023-10-09T00:57:25.753Z,12.39
2023-10-09T01:02:43.462Z,12.36
2023-10-09T01:07:46.799Z,12.33
2023-10-09T01:12:56.228Z,12.31
2023-10-09T01:18:01.063Z,12.31
2023-10-09T01:23:05.285Z,12.28
2023-10-09T01:28:07.189Z,12.27
2023-10-09T01:33:38.366Z,12.27
2023-10-09T01:38:45.534Z,12.26
2023-10-09T01:43:47.964Z,12.25
2023-10-09T01:48:52.040Z,12.24
2023-10-09T01:53:58.250Z,12.24
2023-10-09T01:59:06.821Z,12.21
2023-10-09T02:04:15.492Z,12.20
2023-10-09T02:09:23.825Z,12.14
2023-10-09T02:14:25.863Z,12.11
2023-10-09T02:19:32.771Z,12.13
2023-10-09T02:24:51.286Z,12.14
2023-10-09T02:29:54.022Z,12.12
2023-10-09T02:34:56.168Z,12.13
2023-10-09T02:39:58.101Z,12.10
2023-10-09T02:45:05.188Z,12.10
2023-10-09T02:50:10.192Z,12.09
2023-10-09T02:55:24.801Z,12.07
2023-10-09T03:00:33.236Z,12.05
2023-10-09T03:05:39.566Z,12.05
2023-10-09T03:10:44.119Z,12.04
2023-10-09T03:15:49.570Z,12.05
2023-10-09T03:20:51.723Z,12.05
2023-10-09T03:25:59.230Z,12.03
2023-10-09T03:31:11.306Z,12.00
2023-10-09T03:41:20.106Z,11.98
2023-10-09T03:46:23.718Z,11.98
2023-10-09T03:51:27.477Z,11.99
2023-10-09T03:56:34.025Z,11.98
2023-10-09T04:01:42.166Z,11.97
2023-10-09T04:06:44.539Z,11.97
2023-10-09T04:12:09.221Z,11.95
2023-10-09T04:17:26.027Z,11.93
2023-10-09T04:22:34.011Z,11.95
2023-10-09T04:27:39.668Z,11.96
2023-10-09T04:32:41.706Z,11.97
2023-10-09T04:37:45.890Z,11.99
2023-10-09T04:42:59.539Z,12.00
2023-10-09T04:48:08.182Z,12.02
2023-10-09T04:53:16.133Z,12.04
2023-10-09T04:58:25.144Z,12.07
2023-10-09T05:03:31.682Z,12.09
2023-10-09T05:08:34.166Z,12.11
2023-10-09T05:13:41.067Z,12.15
2023-10-09T05:18:57.229Z,12.16
2023-10-09T05:24:16.150Z,12.19
2023-10-09T05:29:34.873Z,12.22
2023-10-09T05:34:58.400Z,12.26
2023-10-09T05:40:09.025Z,12.29
2023-10-09T05:45:18.255Z,12.32
2023-10-09T05:50:26.073Z,12.36
2023-10-09T05:55:47.663Z,12.40
2023-10-09T06:01:07.664Z,12.43
2023-10-09T06:06:09.722Z,12.47
2023-10-09T06:11:31.092Z,12.58
2023-10-09T06:17:05.222Z,12.63
2023-10-09T06:22:12.785Z,12.66
2023-10-09T06:27:36.717Z,12.73
2023-10-09T06:32:38.756Z,12.87
2023-10-09T06:38:00.548Z,13.02
2023-10-09T06:43:16.212Z,13.10
2023-10-09T06:48:37.182Z,13.20
2023-10-09T06:53:54.154Z,13.25
2023-10-09T06:59:00.096Z,13.32
2023-10-09T07:04:12.064Z,13.41
2023-10-09T07:09:15.149Z,13.44
2023-10-09T07:14:33.983Z,13.48
2023-10-09T07:19:41.451Z,13.51
2023-10-09T07:24:51.035Z,13.56
2023-10-09T07:29:53.048Z,13.62
2023-10-09T07:35:02.574Z,13.66
2023-10-09T07:40:09.076Z,13.69
2023-10-09T07:45:22.504Z,13.73
2023-10-09T07:50:24.709Z,13.78
2023-10-09T07:55:40.488Z,13.85
2023-10-09T08:01:01.259Z,13.91
2023-10-09T08:06:22.112Z,13.95
2023-10-09T08:11:42.102Z,14.01
2023-10-09T08:16:44.472Z,14.06
2023-10-09T08:22:09.096Z,14.13
2023-10-09T08:27:34.154Z,14.18
2023-10-09T08:37:50.026Z,14.34
2023-10-09T08:42:56.700Z,14.42
2023-10-09T08:47:58.638Z,14.47
2023-10-09T08:53:00.716Z,14.52
2023-10-09T08:58:07.238Z,14.58
2023-10-09T09:03:11.429Z,14.61
2023-10-09T09:08:26.816Z,14.68
2023-10-09T09:13:32.867Z,14.70
2023-10-09T09:18:57.757Z,14.72
2023-10-09T09:24:07.461Z,14.76
2023-10-09T09:29:09.919Z,14.79
2023-10-09T09:34:18.168Z,14.81
2023-10-09T09:39:29.276Z,14.87
2023-10-09T09:44:44.680Z,14.89
2023-10-09T09:49:51.823Z,14.93
2023-10-09T09:54:56.019Z,14.95
2023-10-09T09:59:58.792Z,15.01
2023-10-09T10:05:07.555Z,15.05
2023-10-09T10:10:59.633Z,15.13
2023-10-09T10:16:12.822Z,15.23
2023-10-09T10:21:34.389Z,15.30
2023-10-09T10:26:36.395Z,15.36
2023-10-09T10:32:08.258Z,15.35
2023-10-09T10:37:14.461Z,15.34
2023-10-09T10:42:36.865Z,15.37
2023-10-09T10:47:43.152Z,15.43
2023-10-09T10:52:58.519Z,15.62
2023-10-09T10:58:11.625Z,15.99
2023-10-09T11:03:25.176Z,16.09
2023-10-09T11:08:34.015Z,16.14
2023-10-09T11:13:53.812Z,16.33
2023-10-09T11:18:58.278Z,16.24
2023-10-09T11:24:20.535Z,16.06
2023-10-09T11:29:41.833Z,15.94
2023-10-09T11:34:52.910Z,15.93
2023-10-09T11:39:58.931Z,16.11
2023-10-09T11:45:05.736Z,16.18
2023-10-09T11:50:18.416Z,16.36
2023-10-09T11:55:20.541Z,16.41
2023-10-09T12:00:31.445Z,16.50
2023-10-09T12:05:34.920Z,16.46
2023-10-09T12:10:39.498Z,16.39
2023-10-09T12:15:41.697Z,16.42
2023-10-09T12:20:48.900Z,16.43
2023-10-09T12:25:51.401Z,16.45
2023-10-09T12:30:53.662Z,16.23
2023-10-09T12:36:02.918Z,16.11
2023-10-09T12:41:21.253Z,16.03
2023-10-09T12:46:27.021Z,15.96
2023-10-09T12:51:31.678Z,16.02
2023-10-09T12:56:39.037Z,16.20
2023-10-09T13:01:44.670Z,16.23
2023-10-09T13:06:47.497Z,16.30
2023-10-09T13:11:51.986Z,16.34
2023-10-09T13:16:54.449Z,16.30
2023-10-09T13:21:56.460Z,16.22
2023-10-09T13:27:00.938Z,16.17
2023-10-09T13:32:04.140Z,16.13
2023-10-09T13:37:12.817Z,16.12
2023-10-09T13:42:15.340Z,16.06
2023-10-09T13:47:30.632Z,15.96
2023-10-09T13:52:40.442Z,15.96
2023-10-09T13:57:46.402Z,15.99
2023-10-09T14:02:48.376Z,16.72
2023-10-09T14:07:54.934Z,16.95
2023-10-09T14:13:13.222Z,16.86
2023-10-09T14:18:17.867Z,16.79
2023-10-09T14:23:21.911Z,17.11
2023-10-09T14:28:29.361Z,17.18
2023-10-09T14:33:37.837Z,17.30
2023-10-09T14:38:40.312Z,17.09
2023-10-09T14:43:42.693Z,16.87
2023-10-09T14:48:47.571Z,16.76
2023-10-09T14:58:52.613Z,16.69
2023-10-09T15:03:56.745Z,16.51
2023-10-09T15:09:09.835Z,16.43
2023-10-09T15:14:15.301Z,16.33
2023-10-09T15:19:20.116Z,16.30
2023-10-09T15:24:22.393Z,16.20
2023-10-09T15:29:34.615Z,16.13
2023-10-09T15:34:36.713Z,16.01
2023-10-09T15:39:41.077Z,15.94
2023-10-09T15:44:49.068Z,15.84
2023-10-09T15:49:53.009Z,15.78
2023-10-09T15:54:55.474Z,15.78
2023-10-09T16:00:00.238Z,15.74
2023-10-09T16:05:02.274Z,15.85
2023-10-09T16:10:22.813Z,15.70
2023-10-09T16:15:26.523Z,15.57
2023-10-09T16:20:28.857Z,15.54
2023-10-09T16:25:35.270Z,15.47
2023-10-09T16:30:39.556Z,15.37
2023-10-09T16:35:43.305Z,15.29
2023-10-09T16:40:53.577Z,15.25
2023-10-09T16:46:02.206Z,15.18
2023-10-09T16:51:09.871Z,15.15
2023-10-09T16:56:16.531Z,15.13
2023-10-09T17:01:22.092Z,15.12
2023-10-09T17:06:25.262Z,15.11
2023-10-09T17:11:30.342Z,15.07
2023-10-09T17:16:42.017Z,15.04
2023-10-09T17:21:47.741Z,14.99
2023-10-09T17:26:56.861Z,14.94
2023-10-09T17:32:10.246Z,14.90
2023-10-09T17:37:13.299Z,14.88
2023-10-09T17:42:15.352Z,14.86
2023-10-09T17:47:17.541Z,14.85
2023-10-09T17:52:23.201Z,14.80
2023-10-09T17:57:25.275Z,14.80
2023-10-09T18:02:29.188Z,14.77
2023-10-09T18:07:33.261Z,14.73
2023-10-09T18:12:35.101Z,14.68
2023-10-09T18:17:39.245Z,14.68
2023-10-09T18:22:41.287Z,14.66
2023-10-09T18:27:43.128Z,14.65
2023-10-09T18:32:50.370Z,14.78
2023-10-09T18:37:58.058Z,14.75
2023-10-09T18:43:00.156Z,14.67
2023-10-09T18:48:02.415Z,14.65
2023-10-09T18:53:04.557Z,14.61
2023-10-09T18:58:10.916Z,14.57
2023-10-09T19:03:18.273Z,14.56
2023-10-09T19:08:21.984Z,14.50
2023-10-09T19:13:24.323Z,14.44
2023-10-09T19:18:26.411Z,14.39
2023-10-09T19:23:30.801Z,14.38
2023-10-09T19:28:35.179Z,14.35
2023-10-09T19:33:39.953Z,14.33
2023-10-09T19:38:51.401Z,14.34
2023-10-09T19:43:56.066Z,14.31
2023-10-09T19:48:58.022Z,14.31
2023-10-09T19:54:03.024Z,14.33
2023-10-09T19:59:06.719Z,14.34
2023-10-09T20:04:09.037Z,14.33
2023-10-09T20:09:13.768Z,14.33
2023-10-09T20:14:15.944Z,14.34
2023-10-09T20:19:18.776Z,14.33
2023-10-09T20:24:21.562Z,14.33
2023-10-09T20:29:25.870Z,14.32
2023-10-09T20:34:27.764Z,14.30
2023-10-09T20:39:34.347Z,14.28
2023-10-09T20:44:36.684Z,14.27
2023-10-09T20:49:38.646Z,14.24
2023-10-09T20:54:43.416Z,14.23
2023-10-09T20:59:47.280Z,14.22
2023-10-09T21:04:49.254Z,14.23
2023-10-09T21:09:53.913Z,14.23
2023-10-09T21:14:56.664Z,14.21
2023-10-09T21:19:58.461Z,14.21
2023-10-09T21:25:02.641Z,14.17
2023-10-09T21:30:05.870Z,14.15
2023-10-09T21:35:18.805Z,14.16
2023-10-09T21:40:29.490Z,14.14
2023-10-09T21:45:31.639Z,14.13
2023-10-09T21:50:39.642Z,14.15
2023-10-09T21:55:42.489Z,14.13
2023-10-09T22:00:48.100Z,14.12
2023-10-09T22:05:50.060Z,14.10
2023-10-09T22:10:52.068Z,14.09
2023-10-09T22:15:55.087Z,14.10
2023-10-09T22:21:05.517Z,14.10
2023-10-09T22:26:07.547Z,14.13
2023-10-09T22:31:17.047Z,14.14
2023-10-09T22:36:34.423Z,14.13
2023-10-09T22:41:43.886Z,14.13
2023-10-09T22:46:48.928Z,14.10
2023-10-09T22:51:53.649Z,14.05
2023-10-09T22:56:59.609Z,13.98
2023-10-09T23:02:05.373Z,13.94
2023-10-09T23:07:19.786Z,13.87
2023-10-09T23:12:37.016Z,13.81
2023-10-09T23:17:49.436Z,13.77
2023-10-09T23:22:53.066Z,13.76
2023-10-09T23:28:15.242Z,13.75
2023-10-09T23:33:31.306Z,13.70
2023-10-09T23:39:00.213Z,13.69
2023-10-09T23:44:08.321Z,13.66
2023-10-09T23:49:19.293Z,13.64
2023-10-09T23:54:25.959Z,13.63
2023-10-09T23:59:51.757Z,13.59
